WZZ7AY EPWA-LDDU
Flight info
| Callsign | WZZ7AY |
|---|---|
| Flight time | N/A |
| Altitude | 34000 |
| Route | EVINA M66 BABKO DCT BALAP/N0444F360 DCT BAREB/N0441F350 DCT CE DCT ADULA DCT VIBOP/N0446F360 DCT NETKO |
| Aircraft | A21N/M-SDE2E3FGHIRWXY/LB1 |
Departure
| Time | N/A |
|---|---|
| Airport | Warsaw Chopin Airport (EPWA) |
Arrival
| Time | 2026-04-30 18:01 |
|---|---|
| Airport | Dubrovnik Ruđer Bošković Airport (LDDU) |
| Time | Latitude | Longitude | Altitude | Speed | Heading |
|---|---|---|---|---|---|
| 2026-04-30 17:39 | 44.20526 | 17.97976 | 33571 ft | 457 kts | 195° |
| 2026-04-30 17:41 | 43.95867 | 17.91127 | 29852 ft | 455 kts | 194° |
| 2026-04-30 17:42 | 43.89685 | 17.89423 | 28841 ft | 451 kts | 194° |
| 2026-04-30 17:42 | 43.80537 | 17.86908 | 27363 ft | 443 kts | 194° |
| 2026-04-30 17:43 | 43.74554 | 17.85264 | 26440 ft | 437 kts | 194° |
| 2026-04-30 17:44 | 43.65741 | 17.82851 | 25036 ft | 428 kts | 194° |
| 2026-04-30 17:44 | 43.57048 | 17.80477 | 23623 ft | 421 kts | 194° |
| 2026-04-30 17:46 | 43.42954 | 17.76641 | 21331 ft | 408 kts | 193° |
| 2026-04-30 17:47 | 43.31945 | 17.73657 | 19531 ft | 399 kts | 193° |
| 2026-04-30 17:48 | 43.21128 | 17.75140 | 17410 ft | 391 kts | 169° |
| 2026-04-30 17:48 | 43.13302 | 17.77122 | 15763 ft | 372 kts | 170° |
| 2026-04-30 17:49 | 43.03474 | 17.79366 | 13304 ft | 345 kts | 170° |
| 2026-04-30 17:50 | 42.94459 | 17.81391 | 10748 ft | 315 kts | 170° |
| 2026-04-30 17:51 | 42.88205 | 17.82788 | 9017 ft | 295 kts | 169° |
| 2026-04-30 17:52 | 42.82289 | 17.84111 | 7337 ft | 279 kts | 169° |
| 2026-04-30 17:53 | 42.72937 | 17.86323 | 5410 ft | 266 kts | 153° |
| 2026-04-30 17:54 | 42.69158 | 17.93995 | 5031 ft | 246 kts | 111° |
| 2026-04-30 17:55 | 42.66201 | 18.01588 | 4258 ft | 215 kts | 113° |
| 2026-04-30 17:56 | 42.63669 | 18.07881 | 3237 ft | 168 kts | 111° |
| 2026-04-30 17:57 | 42.62119 | 18.11763 | 2609 ft | 142 kts | 111° |
| 2026-04-30 17:58 | 42.60749 | 18.15209 | 2069 ft | 139 kts | 111° |
| 2026-04-30 17:59 | 42.58919 | 18.19801 | 1337 ft | 137 kts | 112° |
| 2026-04-30 18:00 | 42.57074 | 18.24455 | 578 ft | 135 kts | 112° |
| 2026-04-30 18:00 | 42.56173 | 18.26739 | 519 ft | 55 kts | 117° |
| 2026-04-30 18:01 | 42.55915 | 18.27318 | 506 ft | 10 kts | 158° |
| 2026-04-30 18:02 | 42.55769 | 18.27304 | 505 ft | 6 kts | 267° |
| 2026-04-30 18:02 | 42.55863 | 18.27041 | 511 ft | 8 kts | 298° |
| 2026-04-30 18:03 | 42.55971 | 18.26767 | 517 ft | 14 kts | 298° |
| 2026-04-30 18:04 | 42.56090 | 18.26468 | 521 ft | 6 kts | 299° |
| 2026-04-30 18:05 | 42.56049 | 18.26399 | 522 ft | 0 kts | 207° |